Terminal Aerodrome Forecast
Issued by NWS Upton, NY

Home | Current Version | Previous Version | Text Only | Print | Product List | Glossary On
Versions: 1 2 3 4 5 6 7 8 9 10 11 12 13 14 15 16 17 18 19 20 21 22 23 24 25 26 27 28 29 30 31
043
FTUS41 KOKX 272320
TAFJFK
TAF
KJFK 272320Z 2800/2906 12007KT P6SM BKN040
     FM280900 13005KT P6SM BKN020
     FM281400 14008KT P6SM SCT025 BKN035
     FM281800 14013KT P6SM SCT035 SCT250
     FM282300 15011KT P6SM SCT035 BKN200=

USA.gov is the U.S. government's official web portal to all federal, state and local government web resources and services.